Time;durP1;ratioP1;P1;durP2;ratioP2;P2;SDS_P1;SDS_P2;PMS_P1;PMS_P2;Temp;Humidity;BMP_temperature;BMP_pressure;BME280_temperature;BME280_humidity;BME280_pressure;Samples;Min_cycle;Max_cycle;Signal;HPM_P1;HPM_P2
2022/08/12 05:00:39;;;;;;;4.30;3.90;;;20.00;97.20;;;;;;1727916;28;20223;-71
2022/08/12 05:01:31;;;;;;;4.40;4.00;;;20.00;97.20;;;;;;1728382;28;20204;-71
2022/08/12 05:02:25;;;;;;;4.10;3.80;;;20.00;97.20;;;;;;1728263;28;20200;-71
2022/08/12 05:03:16;;;;;;;4.57;4.25;;;20.00;97.20;;;;;;1728370;28;20238;-71
2022/08/12 05:04:09;;;;;;;4.10;3.80;;;20.00;97.20;;;;;;1727981;28;20200;-71
2022/08/12 05:05:01;;;;;;;5.57;3.65;;;20.00;97.20;;;;;;1728374;28;20204;-71
2022/08/12 05:05:55;;;;;;;4.20;3.63;;;20.00;97.20;;;;;;1728290;28;20215;-71
2022/08/12 05:06:46;;;;;;;5.30;3.83;;;20.00;97.20;;;;;;1728393;28;20216;-71
2022/08/12 05:07:38;;;;;;;4.45;3.67;;;20.00;97.20;;;;;;1728327;28;20738;-71
2022/08/12 05:08:29;;;;;;;4.32;3.92;;;20.00;97.20;;;;;;1728303;28;20679;-70
2022/08/12 05:09:21;;;;;;;3.55;3.35;;;20.00;97.20;;;;;;1728074;28;20204;-71
2022/08/12 05:10:12;;;;;;;4.40;4.00;;;20.00;97.20;;;;;;1728121;28;20209;-71
2022/08/12 05:11:05;;;;;;;4.20;3.80;;;20.00;97.20;;;;;;1728209;28;20307;-71
2022/08/12 05:11:56;;;;;;;5.32;4.13;;;20.10;97.20;;;;;;1728276;28;20287;-71
2022/08/12 05:12:54;;;;;;;3.90;3.60;;;20.10;97.20;;;;;;1728374;28;20196;-70
2022/08/12 05:13:45;;;;;;;4.45;3.75;;;20.10;97.20;;;;;;1728303;28;20207;-71
2022/08/12 05:14:38;;;;;;;4.63;4.22;;;20.10;97.20;;;;;;1728270;28;20295;-71
2022/08/12 05:15:29;;;;;;;3.95;3.65;;;20.10;97.20;;;;;;1728244;28;20274;-71
2022/08/12 05:16:23;;;;;;;4.03;3.63;;;20.10;97.20;;;;;;1728257;28;20208;-71
2022/08/12 05:17:14;;;;;;;3.85;3.55;;;20.20;97.20;;;;;;1728260;28;20494;-71
2022/08/12 05:18:05;;;;;;;4.90;3.40;;;20.20;97.20;;;;;;1728279;28;20196;-71
2022/08/12 05:18:57;;;;;;;6.38;3.67;;;20.20;97.20;;;;;;1727965;28;20717;-71
2022/08/12 05:19:49;;;;;;;4.32;3.53;;;20.20;97.20;;;;;;1727993;28;20207;-71
2022/08/12 05:20:42;;;;;;;4.25;3.67;;;20.30;97.20;;;;;;1727827;28;20227;-71
2022/08/12 05:21:34;;;;;;;4.50;3.22;;;20.30;97.20;;;;;;1728253;28;20201;-71
2022/08/12 05:22:25;;;;;;;5.53;4.13;;;20.30;97.20;;;;;;1728137;28;20683;-71
2022/08/12 05:23:18;;;;;;;3.60;3.30;;;20.30;97.20;;;;;;1728196;28;20654;-71
2022/08/12 05:24:09;;;;;;;6.43;3.60;;;20.30;97.20;;;;;;1728210;28;20339;-71
2022/08/12 05:25:01;;;;;;;3.73;3.43;;;20.40;97.20;;;;;;1728132;28;20242;-72
2022/08/12 05:25:55;;;;;;;7.47;3.45;;;20.40;97.20;;;;;;1728138;28;20594;-71
2022/08/12 05:26:47;;;;;;;5.00;3.60;;;20.40;97.20;;;;;;1728273;28;20280;-71
2022/08/12 05:27:38;;;;;;;6.07;3.88;;;20.40;97.20;;;;;;1728248;28;20342;-71
2022/08/12 05:28:30;;;;;;;8.32;3.55;;;20.50;97.20;;;;;;1728196;28;20263;-71
2022/08/12 05:29:21;;;;;;;5.43;3.60;;;20.50;97.20;;;;;;1727970;28;20216;-71
2022/08/12 05:30:13;;;;;;;6.73;3.23;;;20.50;97.20;;;;;;1728028;28;20303;-71
2022/08/12 05:31:04;;;;;;;6.47;3.55;;;20.50;97.20;;;;;;1728115;28;20232;-71
2022/08/12 05:31:58;;;;;;;7.82;4.07;;;20.60;97.20;;;;;;1728229;28;20192;-71
2022/08/12 05:32:49;;;;;;;5.63;3.75;;;20.60;97.20;;;;;;1728152;28;20207;-71
2022/08/12 05:33:44;;;;;;;4.30;3.43;;;20.60;97.20;;;;;;1727401;28;20295;-71
2022/08/12 05:34:35;;;;;;;4.53;3.35;;;20.60;97.20;;;;;;1728245;28;20296;-71
2022/08/12 05:35:27;;;;;;;3.93;3.50;;;20.70;97.20;;;;;;1728103;28;20204;-71
2022/08/12 05:36:18;;;;;;;5.20;3.47;;;20.70;97.20;;;;;;1728089;28;20224;-71
2022/08/12 05:37:10;;;;;;;4.00;3.55;;;20.70;97.20;;;;;;1728141;28;20200;-72
2022/08/12 05:39:11;;;;;;;4.85;3.13;;;20.70;97.20;;;;;;1728005;28;20276;-71
2022/08/12 05:40:04;;;;;;;4.68;3.33;;;20.70;97.20;;;;;;1728077;28;20667;-71
2022/08/12 05:40:56;;;;;;;8.90;3.65;;;20.80;97.20;;;;;;1726444;28;20849;-71
2022/08/12 05:41:47;;;;;;;5.43;3.20;;;20.80;97.20;;;;;;1721957;28;20209;-71
2022/08/12 05:42:38;;;;;;;4.80;3.15;;;20.80;97.20;;;;;;1723367;28;20216;-71
2022/08/12 05:43:32;;;;;;;8.73;3.47;;;20.80;97.20;;;;;;1728223;28;20291;-71
2022/08/12 05:44:23;;;;;;;4.03;3.50;;;20.90;97.20;;;;;;1728107;28;20530;-71
2022/08/12 05:45:15;;;;;;;5.10;3.27;;;20.90;97.20;;;;;;1728083;28;20203;-71
2022/08/12 05:46:06;;;;;;;7.63;3.80;;;20.90;97.20;;;;;;1728075;28;20439;-71
2022/08/12 05:46:59;;;;;;;6.57;3.80;;;20.90;97.20;;;;;;1723869;28;20276;-71
2022/08/12 05:47:50;;;;;;;5.78;3.05;;;21.00;97.20;;;;;;1721326;28;20197;-71
2022/08/12 05:48:42;;;;;;;8.43;3.60;;;21.00;97.20;;;;;;1721439;28;20293;-71
2022/08/12 05:49:33;;;;;;;5.55;3.80;;;21.00;97.20;;;;;;1723710;28;20668;-71
2022/08/12 05:50:25;;;;;;;6.07;3.70;;;21.00;97.20;;;;;;1727907;28;20691;-71
2022/08/12 05:51:17;;;;;;;7.40;3.47;;;21.00;97.20;;;;;;1728014;28;21084;-71
2022/08/12 05:52:09;;;;;;;6.20;3.28;;;21.10;97.20;;;;;;1728013;28;20196;-71
2022/08/12 05:53:00;;;;;;;6.18;3.13;;;21.10;97.20;;;;;;1728066;28;20219;-71
2022/08/12 05:53:52;;;;;;;7.30;3.45;;;21.10;97.20;;;;;;1728068;28;20216;-71
2022/08/12 05:54:44;;;;;;;4.75;3.50;;;21.10;97.20;;;;;;1728008;28;20196;-70
2022/08/12 05:55:36;;;;;;;3.38;2.47;;;21.20;97.20;;;;;;1727999;28;20196;-71
2022/08/12 05:56:29;;;;;;;5.18;3.20;;;21.20;97.20;;;;;;1727933;28;20315;-71
2022/08/12 05:57:21;;;;;;;4.70;3.00;;;21.20;97.20;;;;;;1727908;28;20271;-71
2022/08/12 05:58:11;;;;;;;5.30;3.20;;;21.20;97.20;;;;;;1727923;28;20201;-71
2022/08/12 05:59:06;;;;;;;9.23;3.50;;;21.20;97.20;;;;;;1724258;28;20216;-72
2022/08/12 05:59:57;;;;;;;6.60;3.33;;;21.20;97.20;;;;;;1721301;28;20232;-72
2022/08/12 06:00:49;;;;;;;5.67;3.50;;;21.20;97.20;;;;;;1720992;28;20229;-72
2022/08/12 06:01:41;;;;;;;9.02;3.60;;;21.30;97.20;;;;;;1721213;28;20212;-72
2022/08/12 06:02:34;;;;;;;9.48;3.28;;;21.30;97.20;;;;;;1721265;28;20201;-72
2022/08/12 06:03:26;;;;;;;8.57;3.60;;;21.30;97.20;;;;;;1721137;28;20328;-72
2022/08/12 06:04:19;;;;;;;6.13;2.90;;;21.30;97.20;;;;;;1721235;28;20197;-72
2022/08/12 06:05:11;;;;;;;6.43;3.30;;;21.30;97.20;;;;;;1721145;28;20214;-72
2022/08/12 06:06:05;;;;;;;9.25;3.05;;;21.30;97.20;;;;;;1721136;28;20208;-72
2022/08/12 06:06:56;;;;;;;6.22;3.97;;;21.40;97.20;;;;;;1721200;28;20219;-72
2022/08/12 06:07:48;;;;;;;8.83;3.53;;;21.40;97.20;;;;;;1721200;28;20216;-72
2022/08/12 06:08:40;;;;;;;4.38;3.20;;;21.40;97.20;;;;;;1721188;28;20212;-72
2022/08/12 06:09:32;;;;;;;7.78;3.40;;;21.40;97.20;;;;;;1720847;28;20197;-72
2022/08/12 06:10:23;;;;;;;10.93;3.67;;;21.40;97.20;;;;;;1720939;28;20205;-72
2022/08/12 06:11:15;;;;;;;6.40;3.30;;;21.50;97.20;;;;;;1721089;28;20225;-72
2022/08/12 06:12:07;;;;;;;4.35;2.83;;;21.50;97.20;;;;;;1721149;28;20205;-72
2022/08/12 06:12:57;;;;;;;5.07;3.38;;;21.50;97.20;;;;;;1721224;28;20224;-72
2022/08/12 06:13:49;;;;;;;5.80;3.47;;;21.50;97.20;;;;;;1721148;28;20780;-72
2022/08/12 06:14:40;;;;;;;9.45;3.95;;;21.50;97.20;;;;;;1722447;28;20201;-71
2022/08/12 06:15:33;;;;;;;6.23;3.03;;;21.50;97.20;;;;;;1727421;28;20284;-71
2022/08/12 06:16:24;;;;;;;12.00;3.42;;;21.50;97.20;;;;;;1727574;28;20201;-71
2022/08/12 06:17:16;;;;;;;8.60;3.17;;;21.60;97.20;;;;;;1727958;28;20208;-71
2022/08/12 06:18:10;;;;;;;6.13;3.35;;;21.60;97.20;;;;;;1727897;28;20196;-71
2022/08/12 06:19:02;;;;;;;9.02;3.42;;;21.60;97.20;;;;;;1727636;28;20252;-71
2022/08/12 06:19:53;;;;;;;6.25;2.88;;;21.60;97.20;;;;;;1727907;28;20208;-70
2022/08/12 06:20:47;;;;;;;10.93;3.43;;;21.60;97.20;;;;;;1727749;28;20306;-71
2022/08/12 06:21:38;;;;;;;6.05;3.05;;;21.60;97.20;;;;;;1727940;28;20736;-71
2022/08/12 06:22:30;;;;;;;5.70;2.77;;;21.60;97.20;;;;;;1727883;28;20625;-70
2022/08/12 06:23:21;;;;;;;7.32;3.28;;;21.60;97.20;;;;;;1727839;28;20212;-71
2022/08/12 06:24:13;;;;;;;8.27;3.23;;;21.70;97.20;;;;;;1727871;28;20287;-70
2022/08/12 06:25:04;;;;;;;9.07;3.53;;;21.70;97.20;;;;;;1727873;28;20339;-71
2022/08/12 06:25:56;;;;;;;5.88;3.10;;;21.70;97.20;;;;;;1727826;28;20197;-71
2022/08/12 06:26:47;;;;;;;7.28;3.22;;;21.70;97.20;;;;;;1727832;28;20571;-71
2022/08/12 06:27:45;;;;;;;8.43;3.70;;;21.70;97.20;;;;;;1727910;28;20308;-70
2022/08/12 06:28:36;;;;;;;9.07;3.60;;;21.80;97.20;;;;;;1727943;28;20200;-71
2022/08/12 06:29:27;;;;;;;15.37;3.80;;;21.80;97.20;;;;;;1727565;28;20232;-71
2022/08/12 06:30:19;;;;;;;6.65;3.42;;;21.80;97.20;;;;;;1727691;28;20822;-71
2022/08/12 06:31:15;;;;;;;9.20;3.13;;;21.80;97.20;;;;;;1727702;28;20236;-71
2022/08/12 06:32:06;;;;;;;4.80;3.10;;;21.80;97.20;;;;;;1727840;28;20203;-72
2022/08/12 06:32:58;;;;;;;6.47;3.45;;;21.80;97.20;;;;;;1727822;28;20200;-71
2022/08/12 06:33:50;;;;;;;7.03;2.90;;;21.90;97.20;;;;;;1727806;28;20656;-71
2022/08/12 06:34:41;;;;;;;5.75;3.20;;;21.90;97.20;;;;;;1727788;28;20233;-71
2022/08/12 06:35:32;;;;;;;8.25;3.30;;;21.90;97.20;;;;;;1727775;28;20203;-71
2022/08/12 06:36:24;;;;;;;6.47;3.07;;;22.00;97.20;;;;;;1727872;28;20776;-70
2022/08/12 06:37:17;;;;;;;5.93;3.08;;;22.00;97.20;;;;;;1727710;28;20262;-70
2022/08/12 06:38:17;;;;;;;7.45;2.90;;;22.00;97.20;;;;;;1727731;28;20235;-70
2022/08/12 06:39:08;;;;;;;4.35;2.85;;;22.00;97.20;;;;;;1727425;28;20204;-70
2022/08/12 06:40:00;;;;;;;17.83;3.90;;;22.00;97.20;;;;;;1727738;28;20238;-71
2022/08/12 06:43:12;;;;;;;10.13;3.03;;;22.10;97.20;;;;;;1727868;28;20199;-71
2022/08/12 06:44:06;;;;;;;3.58;2.97;;;22.10;97.20;;;;;;1727749;28;20192;-71
2022/08/12 06:44:57;;;;;;;8.30;3.10;;;22.10;97.20;;;;;;1727720;28;20204;-71
2022/08/12 06:45:49;;;;;;;9.23;3.27;;;22.20;97.20;;;;;;1727700;28;20476;-71
2022/08/12 06:46:42;;;;;;;7.68;3.25;;;22.20;97.20;;;;;;1727715;28;20241;-70
2022/08/12 06:47:35;;;;;;;8.52;3.38;;;22.20;97.20;;;;;;1727662;28;20212;-71
2022/08/12 06:48:28;;;;;;;7.45;3.00;;;22.20;97.20;;;;;;1727661;28;20247;-71
2022/08/12 06:49:20;;;;;;;3.20;2.85;;;22.20;97.20;;;;;;1727435;28;20215;-70
2022/08/12 06:50:14;;;;;;;6.60;3.67;;;22.30;97.20;;;;;;1727695;28;20208;-70
2022/08/12 06:51:07;;;;;;;6.53;3.28;;;22.30;97.20;;;;;;1727579;28;20208;-70
2022/08/12 06:51:59;;;;;;;3.85;3.40;;;22.30;97.20;;;;;;1727752;28;20574;-71
2022/08/12 06:52:50;;;;;;;4.05;2.67;;;22.40;97.20;;;;;;1727633;28;20207;-71
2022/08/12 06:53:43;;;;;;;3.72;2.97;;;22.40;97.20;;;;;;1727611;28;20227;-70
2022/08/12 06:54:34;;;;;;;3.97;2.72;;;22.40;97.20;;;;;;1727695;28;20710;-71
2022/08/12 06:55:26;;;;;;;8.63;3.55;;;22.40;97.20;;;;;;1727571;28;20203;-71
2022/08/12 06:56:17;;;;;;;6.00;3.85;;;22.40;97.20;;;;;;1727817;28;20211;-71
2022/08/12 06:57:08;;;;;;;7.87;3.40;;;22.50;97.20;;;;;;1727634;28;20283;-71
2022/08/12 06:58:01;;;;;;;6.63;2.80;;;22.50;97.20;;;;;;1727668;28;20200;-71
2022/08/12 06:58:54;;;;;;;6.05;3.15;;;22.50;97.20;;;;;;1727569;28;20197;-71
2022/08/12 06:59:46;;;;;;;3.33;2.45;;;22.50;97.20;;;;;;1727642;28;20200;-71
2022/08/12 07:00:38;;;;;;;3.80;2.73;;;22.50;97.20;;;;;;1727448;28;20231;-71
2022/08/12 07:01:30;;;;;;;4.70;3.22;;;22.60;97.20;;;;;;1727559;28;20436;-71
2022/08/12 07:02:22;;;;;;;3.03;2.72;;;22.60;97.20;;;;;;1727687;28;20200;-71
2022/08/12 07:03:17;;;;;;;6.78;3.03;;;22.60;97.20;;;;;;1727559;28;20216;-70
2022/08/12 07:04:09;;;;;;;3.60;2.75;;;22.60;97.20;;;;;;1727534;28;20201;-72
2022/08/12 07:05:01;;;;;;;4.28;3.22;;;22.70;97.20;;;;;;1727531;28;20211;-70
2022/08/12 07:05:53;;;;;;;3.22;2.53;;;22.70;97.20;;;;;;1727539;28;20227;-70
2022/08/12 07:06:45;;;;;;;4.32;2.65;;;22.70;97.20;;;;;;1727615;28;20213;-70
2022/08/12 07:07:37;;;;;;;4.43;2.60;;;22.80;97.20;;;;;;1727585;28;20690;-70
2022/08/12 07:08:31;;;;;;;6.45;3.20;;;22.80;97.20;;;;;;1727533;28;20663;-70
2022/08/12 07:09:22;;;;;;;6.80;3.50;;;22.80;97.20;;;;;;1727260;28;20271;-70
2022/08/12 07:10:14;;;;;;;5.53;3.10;;;22.80;97.20;;;;;;1727458;28;20193;-70
2022/08/12 07:11:08;;;;;;;4.28;2.88;;;22.90;97.20;;;;;;1727482;28;20235;-70
2022/08/12 07:11:59;;;;;;;4.15;3.00;;;22.90;97.20;;;;;;1727575;28;20210;-70
2022/08/12 07:12:53;;;;;;;10.63;3.03;;;22.90;97.20;;;;;;1727530;28;20656;-70
2022/08/12 07:13:51;;;;;;;6.40;2.65;;;22.90;97.20;;;;;;1727481;28;20207;-70
2022/08/12 07:14:42;;;;;;;3.08;2.45;;;22.90;97.20;;;;;;1727498;28;20208;-70
2022/08/12 07:15:34;;;;;;;2.90;2.60;;;22.90;97.20;;;;;;1727594;28;20283;-71
2022/08/12 07:16:50;;;;;;;5.45;2.60;;;23.00;97.20;;;;;;1727476;28;20216;-70
2022/08/12 07:17:39;;;;;;;6.95;3.20;;;23.00;97.20;;;;;;1727403;28;20212;-70
2022/08/12 07:18:31;;;;;;;7.25;4.13;;;23.00;97.20;;;;;;1727499;28;20738;-70
2022/08/12 07:19:22;;;;;;;6.93;3.30;;;23.00;97.20;;;;;;1727269;28;20294;-70
2022/08/12 07:20:16;;;;;;;5.53;2.80;;;23.00;97.20;;;;;;1727394;28;20200;-70
2022/08/12 07:21:07;;;;;;;4.10;2.60;;;23.00;97.20;;;;;;1727476;28;20815;-70
2022/08/12 07:22:05;;;;;;;4.35;2.70;;;23.00;97.20;;;;;;1727632;28;20641;-70
2022/08/12 07:22:55;;;;;;;6.97;2.55;;;23.10;97.20;;;;;;1727665;28;20737;-70
2022/08/12 07:23:49;;;;;;;4.63;2.70;;;23.10;97.20;;;;;;1727514;28;20624;-70
2022/08/12 07:24:41;;;;;;;4.95;3.15;;;23.10;97.20;;;;;;1727519;28;20639;-70
2022/08/12 07:25:33;;;;;;;6.50;2.85;;;23.20;97.20;;;;;;1727418;28;20228;-70
2022/08/12 07:26:25;;;;;;;5.10;3.22;;;23.20;97.20;;;;;;1727368;28;20207;-70
2022/08/12 07:27:16;;;;;;;4.13;2.40;;;23.20;97.20;;;;;;1727350;28;20219;-70
2022/08/12 07:28:10;;;;;;;2.83;2.50;;;23.20;97.20;;;;;;1727444;28;20279;-70
2022/08/12 07:29:01;;;;;;;6.80;3.13;;;23.30;97.20;;;;;;1727287;28;20473;-71
2022/08/12 07:29:53;;;;;;;6.07;2.88;;;23.30;97.20;;;;;;1727590;28;20196;-71
2022/08/12 07:30:47;;;;;;;5.30;2.88;;;23.30;97.20;;;;;;1727673;28;20231;-71
2022/08/12 07:31:40;;;;;;;4.63;2.72;;;23.30;97.20;;;;;;1727749;28;20228;-72
2022/08/12 07:32:30;;;;;;;6.35;2.92;;;23.40;97.20;;;;;;1727382;28;20683;-71
2022/08/12 07:33:26;;;;;;;4.50;3.57;;;23.40;97.20;;;;;;1727508;28;20573;-71
2022/08/12 07:34:18;;;;;;;3.92;2.70;;;23.50;97.20;;;;;;1727500;28;20265;-71
2022/08/12 07:35:09;;;;;;;7.25;3.10;;;23.50;97.20;;;;;;1727407;28;20197;-71
2022/08/12 07:36:02;;;;;;;3.87;2.93;;;23.50;97.20;;;;;;1727392;28;20203;-71
2022/08/12 07:36:53;;;;;;;7.82;2.70;;;23.50;97.20;;;;;;1727414;28;20219;-71
2022/08/12 07:37:46;;;;;;;3.00;2.53;;;23.50;97.20;;;;;;1727411;28;20313;-71
2022/08/12 07:38:41;;;;;;;3.17;2.10;;;23.50;97.20;;;;;;1727468;28;20208;-72
2022/08/12 07:39:31;;;;;;;3.88;2.65;;;23.50;97.20;;;;;;1727284;28;20215;-71
2022/08/12 07:40:23;;;;;;;3.53;2.20;;;23.60;97.20;;;;;;1727325;28;20291;-71
2022/08/12 07:41:17;;;;;;;2.88;2.60;;;23.60;97.20;;;;;;1727517;28;20208;-71
2022/08/12 07:42:09;;;;;;;2.72;2.42;;;23.60;97.20;;;;;;1727447;28;20211;-71
2022/08/12 07:43:00;;;;;;;4.65;2.50;;;23.60;97.20;;;;;;1727478;28;20207;-71
2022/08/12 07:43:56;;;;;;;4.82;2.22;;;23.60;97.20;;;;;;1727432;28;20211;-71
2022/08/12 07:44:48;;;;;;;3.38;2.50;;;23.60;97.20;;;;;;1727438;28;20215;-71
2022/08/12 07:45:39;;;;;;;3.45;2.42;;;23.70;97.20;;;;;;1727424;28;20212;-71
2022/08/12 07:46:33;;;;;;;2.70;2.50;;;23.70;97.20;;;;;;1727371;28;20745;-71
2022/08/12 07:47:25;;;;;;;6.63;2.55;;;23.70;97.20;;;;;;1727288;28;20597;-71
2022/08/12 07:48:17;;;;;;;3.47;2.80;;;23.70;97.20;;;;;;1727447;28;20741;-71
2022/08/12 07:49:10;;;;;;;3.70;2.45;;;23.80;97.20;;;;;;1727115;28;20675;-71
2022/08/12 07:50:07;;;;;;;4.18;2.65;;;23.80;97.20;;;;;;1727371;28;20679;-72
2022/08/12 07:50:59;;;;;;;2.50;2.30;;;23.80;97.20;;;;;;1727433;28;20263;-71
2022/08/12 07:51:51;;;;;;;8.45;2.42;;;23.80;97.20;;;;;;1727346;28;20231;-71
2022/08/12 07:52:47;;;;;;;5.60;2.58;;;23.80;97.20;;;;;;1727440;28;20200;-71
2022/08/12 07:53:39;;;;;;;4.78;2.40;;;23.90;97.20;;;;;;1727396;28;20204;-71
2022/08/12 07:54:30;;;;;;;5.10;2.40;;;23.90;97.20;;;;;;1727428;28;20204;-71
2022/08/12 07:55:21;;;;;;;3.22;2.13;;;23.90;97.20;;;;;;1727346;28;20200;-71
2022/08/12 07:56:13;;;;;;;3.80;2.30;;;24.00;97.20;;;;;;1727350;28;20239;-71
2022/08/12 07:57:05;;;;;;;5.40;3.00;;;24.00;97.20;;;;;;1727348;28;20462;-71
2022/08/12 07:57:59;;;;;;;3.55;2.40;;;24.00;97.20;;;;;;1727425;28;20268;-71
2022/08/12 07:58:50;;;;;;;2.90;2.50;;;24.00;97.20;;;;;;1727371;28;20267;-71
2022/08/12 07:59:42;;;;;;;4.20;2.45;;;24.10;97.20;;;;;;1727078;28;20670;-70
2022/08/12 08:00:35;;;;;;;4.97;2.83;;;24.10;97.20;;;;;;1727151;28;20221;-70
2022/08/12 08:01:27;;;;;;;3.25;2.08;;;24.10;97.20;;;;;;1727333;28;20208;-70
2022/08/12 08:02:18;;;;;;;2.83;2.40;;;24.10;97.20;;;;;;1727336;28;20201;-70
2022/08/12 08:03:12;;;;;;;5.53;2.53;;;24.10;97.20;;;;;;1727335;28;20723;-70
2022/08/12 08:05:15;;;;;;;3.08;2.30;;;24.20;97.20;;;;;;1727462;28;20200;-70
2022/08/12 08:06:14;;;;;;;10.50;3.05;;;24.20;97.20;;;;;;1727362;28;20245;-70
2022/08/12 08:07:08;;;;;;;9.95;3.28;;;24.20;97.20;;;;;;1727518;28;20572;-70
2022/08/12 08:08:01;;;;;;;4.70;3.05;;;24.30;97.20;;;;;;1727970;28;20299;-70
2022/08/12 08:08:55;;;;;;;4.07;3.00;;;24.30;97.20;;;;;;1727373;28;20207;-70
2022/08/12 08:09:46;;;;;;;3.60;2.72;;;24.30;97.20;;;;;;1727321;28;20565;-70
2022/08/12 08:10:37;;;;;;;6.45;2.35;;;24.30;97.20;;;;;;1727146;28;20239;-70
2022/08/12 08:12:53;;;;;;;4.10;2.60;;;24.30;97.20;;;;;;1727418;28;20983;-70
2022/08/12 08:13:46;;;;;;;3.25;2.50;;;24.30;97.20;;;;;;1727327;28;20200;-70
2022/08/12 08:14:39;;;;;;;3.33;2.63;;;24.40;97.20;;;;;;1727243;28;20718;-70
2022/08/12 08:15:33;;;;;;;3.22;2.38;;;24.40;97.20;;;;;;1727273;28;20224;-70
2022/08/12 08:16:24;;;;;;;3.50;2.67;;;24.40;97.20;;;;;;1727255;28;20205;-70
2022/08/12 08:17:16;;;;;;;5.03;3.23;;;24.50;97.20;;;;;;1727190;28;20197;-70
2022/08/12 08:18:09;;;;;;;3.15;2.67;;;24.50;97.20;;;;;;1727225;28;20450;-70
2022/08/12 08:19:01;;;;;;;3.63;2.60;;;24.50;97.20;;;;;;1727036;28;20200;-72
2022/08/12 08:19:51;;;;;;;11.38;2.60;;;24.60;97.20;;;;;;1727341;28;20454;-70
2022/08/12 08:20:45;;;;;;;9.40;2.90;;;24.60;97.20;;;;;;1727027;28;20248;-70
2022/08/12 08:21:36;;;;;;;4.55;2.80;;;24.70;97.20;;;;;;1727259;28;20601;-72
2022/08/12 08:22:29;;;;;;;7.00;2.47;;;24.70;97.20;;;;;;1727338;28;20544;-72
2022/08/12 08:23:20;;;;;;;7.80;3.05;;;24.70;97.20;;;;;;1727292;28;20829;-70
2022/08/12 08:24:14;;;;;;;4.20;2.70;;;24.80;97.20;;;;;;1727281;28;20201;-71
2022/08/12 08:25:05;;;;;;;6.07;2.60;;;24.80;97.20;;;;;;1727289;28;20205;-70
2022/08/12 08:25:57;;;;;;;6.37;2.87;;;24.80;97.20;;;;;;1727322;28;20656;-72
2022/08/12 08:26:50;;;;;;;2.70;2.50;;;24.90;97.20;;;;;;1727252;28;20930;-70
2022/08/12 08:27:45;;;;;;;2.58;2.38;;;24.90;97.20;;;;;;1727304;28;20197;-70
2022/08/12 08:28:37;;;;;;;3.10;2.23;;;24.90;97.20;;;;;;1727257;28;20230;-70
2022/08/12 08:29:28;;;;;;;4.85;2.35;;;24.90;97.20;;;;;;1726907;28;20816;-70
2022/08/12 08:30:19;;;;;;;3.87;2.43;;;24.90;97.20;;;;;;1727064;28;20632;-70
2022/08/12 08:31:12;;;;;;;4.70;3.67;;;25.00;97.20;;;;;;1727125;28;20458;-70
2022/08/12 08:32:06;;;;;;;6.13;2.77;;;25.00;97.20;;;;;;1727199;28;20315;-72
2022/08/12 08:32:57;;;;;;;3.10;2.80;;;25.00;97.20;;;;;;1727355;28;20504;-70
2022/08/12 08:33:49;;;;;;;7.15;2.88;;;25.10;97.20;;;;;;1727217;28;20470;-70
2022/08/12 08:34:40;;;;;;;3.22;2.45;;;25.10;97.20;;;;;;1727222;28;20700;-70
2022/08/12 08:35:32;;;;;;;6.40;2.30;;;25.10;97.20;;;;;;1727188;28;20635;-71
2022/08/12 08:36:22;;;;;;;5.60;2.53;;;25.20;97.20;;;;;;1727144;28;20454;-70
2022/08/12 08:37:14;;;;;;;5.67;2.50;;;25.20;97.20;;;;;;1727172;28;20732;-70
2022/08/12 08:38:09;;;;;;;3.13;2.83;;;25.20;97.20;;;;;;1727214;28;20280;-70
2022/08/12 08:39:01;;;;;;;4.60;2.53;;;25.30;97.20;;;;;;1727240;28;20447;-70
2022/08/12 08:39:52;;;;;;;4.63;2.40;;;25.30;97.20;;;;;;1728466;28;20798;-71
2022/08/12 08:43:10;;;;;;;3.50;2.67;;;25.40;97.20;;;;;;1713027;28;20281;-70
2022/08/12 08:44:01;;;;;;;3.20;2.70;;;25.50;97.20;;;;;;1728571;28;20435;-70
2022/08/12 08:44:57;;;;;;;3.87;2.37;;;25.50;97.20;;;;;;1728492;28;20204;-70
2022/08/12 08:45:47;;;;;;;3.50;2.67;;;25.50;97.20;;;;;;1728480;28;20443;-70
2022/08/12 08:46:39;;;;;;;2.83;2.63;;;25.60;97.20;;;;;;1728467;28;20447;-70
2022/08/12 08:47:30;;;;;;;11.00;2.90;;;25.60;97.20;;;;;;1728529;28;20586;-70
2022/08/12 08:48:22;;;;;;;4.33;2.50;;;25.60;97.20;;;;;;1728447;28;20912;-72
2022/08/12 08:49:14;;;;;;;2.57;2.20;;;25.60;97.20;;;;;;1728133;28;20209;-70
2022/08/12 08:50:09;;;;;;;4.43;2.20;;;25.70;97.20;;;;;;1728415;28;20447;-72
2022/08/12 08:51:01;;;;;;;4.33;3.07;;;25.70;96.80;;;;;;1728530;28;20735;-70
2022/08/12 08:51:53;;;;;;;2.53;2.33;;;25.70;96.80;;;;;;1728380;28;20449;-70
2022/08/12 08:52:45;;;;;;;3.08;2.40;;;25.70;96.30;;;;;;1728400;28;20438;-70
2022/08/12 08:53:40;;;;;;;3.75;3.05;;;25.80;96.10;;;;;;1728450;28;20208;-70
2022/08/12 08:54:32;;;;;;;3.33;2.42;;;25.80;96.30;;;;;;1728382;28;20209;-70
2022/08/12 08:55:24;;;;;;;3.00;2.80;;;25.80;96.50;;;;;;1728362;28;20207;-70
2022/08/12 08:56:15;;;;;;;2.73;2.27;;;25.80;96.50;;;;;;1728351;28;20663;-70
2022/08/12 08:57:07;;;;;;;4.77;3.13;;;25.90;96.20;;;;;;1728513;28;20989;-70
2022/08/12 08:57:58;;;;;;;3.22;2.80;;;25.90;96.00;;;;;;1728422;28;20291;-70
2022/08/12 08:58:50;;;;;;;4.83;3.00;;;25.90;95.80;;;;;;1728294;28;20200;-70
2022/08/12 08:59:43;;;;;;;3.08;2.88;;;26.00;95.90;;;;;;1728090;28;20204;-70
2022/08/12 09:00:37;;;;;;;2.97;2.42;;;26.00;95.50;;;;;;1728087;28;20223;-70
2022/08/12 09:01:29;;;;;;;3.63;2.83;;;26.00;95.20;;;;;;1728334;28;20867;-70
2022/08/12 09:02:21;;;;;;;2.27;2.07;;;26.10;95.20;;;;;;1728380;28;20216;-70
2022/08/12 09:03:12;;;;;;;3.30;2.25;;;26.10;95.30;;;;;;1728296;28;20458;-70
2022/08/12 09:04:04;;;;;;;3.60;2.10;;;26.10;94.90;;;;;;1728401;28;20280;-70
2022/08/12 09:04:55;;;;;;;4.75;2.45;;;26.10;94.30;;;;;;1728354;28;20923;-70
2022/08/12 09:05:46;;;;;;;2.30;2.07;;;26.10;94.30;;;;;;1728349;28;20605;-70
2022/08/12 09:06:38;;;;;;;2.33;2.10;;;26.10;94.30;;;;;;1728336;28;20231;-70
2022/08/12 09:07:30;;;;;;;2.50;2.30;;;26.10;94.10;;;;;;1727875;28;20502;-70
2022/08/12 09:08:21;;;;;;;2.13;1.93;;;26.10;94.40;;;;;;1728236;28;20475;-70
2022/08/12 09:09:16;;;;;;;4.87;2.40;;;26.20;94.40;;;;;;1727902;28;20448;-73
2022/08/12 09:10:07;;;;;;;2.57;2.30;;;26.20;94.40;;;;;;1728246;28;20448;-70
2022/08/12 09:13:26;;;;;;;2.83;2.03;;;26.20;94.30;;;;;;1728386;28;20467;-70
2022/08/12 09:13:28;;;;;;;2.30;2.10;;;26.20;94.20;;;;;;1728029;28;20462;-70
2022/08/12 09:14:19;;;;;;;3.87;2.50;;;26.20;94.00;;;;;;1728351;28;20499;-71
2022/08/12 09:15:09;;;;;;;2.83;2.30;;;26.20;94.00;;;;;;1727763;28;20458;-71
2022/08/12 09:16:01;;;;;;;2.40;2.20;;;26.20;94.30;;;;;;1728503;28;20204;-71
2022/08/12 09:16:52;;;;;;;3.10;2.60;;;26.30;94.60;;;;;;1727934;28;20522;-71
2022/08/12 09:17:54;;;;;;;2.47;2.27;;;26.30;94.70;;;;;;1728288;28;21032;-70
2022/08/12 09:18:46;;;;;;;3.97;2.17;;;26.30;94.40;;;;;;1728319;28;20216;-70
2022/08/12 09:19:37;;;;;;;2.83;2.10;;;26.30;93.90;;;;;;1727396;28;20448;-71
2022/08/12 09:20:31;;;;;;;2.00;1.83;;;26.30;93.70;;;;;;1727816;28;20526;-70
2022/08/12 09:21:22;;;;;;;3.63;2.10;;;26.40;93.80;;;;;;1727836;28;20204;-70
2022/08/12 09:22:14;;;;;;;2.40;2.20;;;26.40;93.80;;;;;;1728202;28;20988;-71
2022/08/12 09:23:08;;;;;;;2.80;1.90;;;26.40;93.60;;;;;;1727841;28;20446;-70
2022/08/12 09:24:00;;;;;;;3.97;2.00;;;26.40;93.70;;;;;;1721564;28;20444;-70
2022/08/12 09:24:52;;;;;;;3.97;1.90;;;26.40;93.70;;;;;;1721469;28;20586;-70
2022/08/12 09:25:47;;;;;;;2.50;2.30;;;26.50;93.90;;;;;;1727945;28;20455;-70
2022/08/12 09:26:39;;;;;;;2.20;2.00;;;26.50;94.10;;;;;;1728238;28;20966;-70
2022/08/12 09:27:31;;;;;;;3.03;2.20;;;26.50;94.30;;;;;;1728203;28;20482;-70
2022/08/12 09:28:24;;;;;;;2.57;2.37;;;26.50;94.20;;;;;;1727932;28;20481;-70
2022/08/12 09:29:19;;;;;;;3.20;2.10;;;26.60;94.10;;;;;;1721228;28;20444;-70
2022/08/12 09:30:14;;;;;;;2.20;2.00;;;26.60;94.20;;;;;;1721344;28;20678;-70
2022/08/12 09:31:06;;;;;;;2.30;2.10;;;26.70;93.80;;;;;;1727193;28;20443;-70
2022/08/12 09:31:57;;;;;;;4.80;2.40;;;26.70;93.60;;;;;;1728158;28;20450;-70
2022/08/12 09:32:50;;;;;;;3.30;2.50;;;26.70;93.10;;;;;;1728078;28;20510;-70
2022/08/12 09:33:41;;;;;;;2.70;2.50;;;26.70;92.80;;;;;;1727709;28;20251;-70
2022/08/12 09:34:33;;;;;;;3.27;2.10;;;26.70;92.90;;;;;;1728235;28;20443;-70
2022/08/12 09:35:25;;;;;;;6.80;2.17;;;26.80;92.90;;;;;;1727822;28;20201;-70
2022/08/12 09:36:17;;;;;;;2.30;2.10;;;26.80;93.20;;;;;;1728041;28;20450;-71
2022/08/12 09:37:08;;;;;;;2.40;2.20;;;26.80;93.10;;;;;;1728013;28;20447;-70
2022/08/12 09:38:02;;;;;;;2.53;2.33;;;26.80;93.20;;;;;;1728210;28;20538;-70
2022/08/12 09:38:52;;;;;;;2.83;2.40;;;26.80;92.90;;;;;;1728186;28;20207;-70
2022/08/12 09:39:44;;;;;;;2.37;2.07;;;26.80;92.90;;;;;;1727828;28;20441;-70
2022/08/12 09:40:36;;;;;;;2.80;2.50;;;26.80;92.70;;;;;;1728047;28;20224;-70
2022/08/12 09:41:28;;;;;;;4.03;2.17;;;26.80;92.50;;;;;;1727891;28;20440;-71
2022/08/12 09:45:48;;;;;;;2.13;1.93;;;26.80;92.40;;;;;;1728171;28;20435;-71